Toko, Russia
Current Conditions -  °F | °C
As of 5:30 AM on Friday 28 Nov 2014 (Local Time) from UEEE Reporting Station
Light Snow Light Snow  
Wind Chill: -22°   Ceiling: 10000
Heat Index: -22°   Visibility: 6mi
Dew Point: -27°   Wind: 2mph
Humidity: 76%   Direction: 260°W
Pressure: 30.03"   Gusts: NA
Location:  56.18°N, 131.02°E
Report Text: UEEE 271930Z 26001MPS 9999 -SN OVC100 M30/M33 Q1017 NOSIG RMKQFE754 23490145
Loading
Personal Weather Stations






























Interactive Weather Map New forecast layout! Learn more

10-Day Weather Forecast

Advertisements
Track Severe Weather on mobile